createdAt,value
2023-04-16T00:00:17.023Z,1.50
2023-04-16T00:02:44.410Z,1.35
2023-04-16T00:05:11.679Z,1.42
2023-04-16T00:07:43.844Z,1.67
2023-04-16T00:10:11.096Z,1.30
2023-04-16T00:12:41.279Z,1.65
2023-04-16T00:15:08.821Z,1.48
2023-04-16T00:17:37.214Z,1.33
2023-04-16T00:20:08.857Z,1.40
2023-04-16T00:22:36.040Z,1.60
2023-04-16T00:25:03.939Z,1.30
2023-04-16T00:27:31.098Z,1.60
2023-04-16T00:29:58.471Z,1.40
2023-04-16T00:32:25.824Z,1.25
2023-04-16T00:34:55.557Z,1.35
2023-04-16T00:37:25.402Z,1.30
2023-04-16T00:39:52.770Z,1.30
2023-04-16T00:42:20.129Z,1.50
2023-04-16T00:44:52.241Z,1.42
2023-04-16T00:49:50.584Z,1.27
2023-04-16T00:52:20.299Z,1.40
2023-04-16T00:54:47.872Z,1.40
2023-04-16T00:57:17.508Z,1.40
2023-04-16T00:59:45.144Z,1.42
2023-04-16T01:02:14.838Z,1.40
2023-04-16T01:04:42.515Z,1.40
2023-04-16T01:07:12.284Z,1.60
2023-04-16T01:09:41.945Z,1.42
2023-04-16T01:12:10.938Z,1.30
2023-04-16T01:14:38.298Z,1.42
2023-04-16T01:17:08.641Z,1.40
2023-04-16T01:19:38.518Z,1.60
2023-04-16T01:22:06.090Z,1.27
2023-04-16T01:24:34.967Z,1.50
2023-04-16T01:27:04.494Z,1.65
2023-04-16T01:29:31.693Z,1.30
2023-04-16T01:32:02.151Z,1.30
2023-04-16T01:34:34.530Z,1.50
2023-04-16T01:37:04.129Z,1.55
2023-04-16T01:39:35.697Z,1.45
2023-04-16T01:42:03.999Z,1.40
2023-04-16T01:44:31.201Z,1.42
2023-04-16T01:46:58.587Z,1.40
2023-04-16T01:49:33.942Z,1.25
2023-04-16T01:52:01.107Z,1.50
2023-04-16T01:54:30.900Z,1.35
2023-04-16T01:56:58.584Z,1.58
2023-04-16T01:59:28.085Z,1.65
2023-04-16T02:01:56.266Z,1.70
2023-04-16T02:04:23.447Z,1.50
2023-04-16T02:06:50.843Z,1.52
2023-04-16T02:09:18.152Z,1.48
2023-04-16T02:11:45.506Z,1.33
2023-04-16T02:14:15.208Z,1.33
2023-04-16T02:16:43.182Z,1.40
2023-04-16T02:19:33.453Z,1.52
2023-04-16T02:22:06.741Z,1.30
2023-04-16T02:24:34.118Z,1.30
2023-04-16T02:27:05.591Z,1.40
2023-04-16T02:29:33.512Z,1.40
2023-04-16T02:32:13.382Z,1.50
2023-04-16T02:34:43.814Z,1.40
2023-04-16T02:37:15.403Z,1.38
2023-04-16T02:39:45.076Z,1.50
2023-04-16T02:42:14.376Z,1.42
2023-04-16T02:44:42.211Z,1.30
2023-04-16T02:47:09.614Z,1.40
2023-04-16T02:49:36.792Z,1.23
2023-04-16T02:52:09.087Z,1.50
2023-04-16T02:54:36.368Z,1.40
2023-04-16T02:57:03.791Z,1.60
2023-04-16T02:59:30.944Z,1.40
2023-04-16T03:01:59.082Z,1.20
2023-04-16T03:04:28.678Z,1.60
2023-04-16T03:06:56.180Z,1.45
2023-04-16T03:09:23.367Z,1.40
2023-04-16T03:11:52.980Z,1.33
2023-04-16T03:14:23.046Z,1.55
2023-04-16T03:16:52.921Z,1.50
2023-04-16T03:19:20.383Z,1.33
2023-04-16T03:21:47.790Z,1.50
2023-04-16T03:24:18.749Z,1.40
2023-04-16T03:26:49.213Z,1.50
2023-04-16T03:29:17.786Z,1.42
2023-04-16T03:31:45.153Z,1.50
2023-04-16T03:34:12.519Z,1.20
2023-04-16T03:36:42.724Z,1.58
2023-04-16T03:39:10.114Z,1.60
2023-04-16T03:41:37.779Z,1.45
2023-04-16T03:44:05.411Z,1.75
2023-04-16T03:46:33.913Z,1.20
2023-04-16T03:49:03.385Z,1.50
2023-04-16T03:51:30.948Z,1.60
2023-04-16T03:53:58.354Z,1.48
2023-04-16T03:56:26.720Z,1.50
2023-04-16T03:58:57.284Z,1.40
2023-04-16T04:01:24.452Z,1.35
2023-04-16T04:03:53.005Z,1.40
2023-04-16T04:06:21.294Z,1.45
2023-04-16T04:08:48.785Z,1.40
2023-04-16T04:11:16.710Z,1.45
2023-04-16T04:13:44.279Z,1.50
2023-04-16T04:16:11.743Z,1.40
2023-04-16T04:18:43.949Z,1.60
2023-04-16T04:21:12.853Z,1.33
2023-04-16T04:23:41.731Z,1.30
2023-04-16T04:26:09.647Z,1.60
2023-04-16T04:28:39.242Z,1.50
2023-04-16T04:31:06.471Z,1.30
2023-04-16T04:33:33.792Z,1.52
2023-04-16T04:36:01.600Z,1.30
2023-04-16T04:38:33.153Z,1.70
2023-04-16T04:41:00.776Z,1.65
2023-04-16T04:43:32.256Z,1.60
2023-04-16T04:46:00.976Z,1.40
2023-04-16T04:48:29.809Z,1.35
2023-04-16T04:50:57.387Z,1.48
2023-04-16T04:53:24.934Z,1.40
2023-04-16T04:55:54.188Z,1.60
2023-04-16T04:58:24.933Z,2.53
2023-04-16T05:00:52.624Z,2.85
2023-04-16T05:03:21.792Z,3.45
2023-04-16T05:05:49.401Z,3.50
2023-04-16T05:08:16.806Z,3.17
2023-04-16T05:10:47.152Z,3.38
2023-04-16T05:13:14.516Z,3.05
2023-04-16T05:15:45.643Z,3.25
2023-04-16T05:18:12.908Z,3.13
2023-04-16T05:20:40.462Z,2.97
2023-04-16T05:23:07.822Z,2.97
2023-04-16T05:25:35.582Z,2.53
2023-04-16T05:28:05.489Z,2.63
2023-04-16T05:30:35.060Z,3.15
2023-04-16T05:33:02.296Z,2.65
2023-04-16T05:35:31.786Z,2.70
2023-04-16T05:37:59.006Z,2.00
2023-04-16T05:40:27.013Z,2.20
2023-04-16T05:42:54.167Z,2.50
2023-04-16T05:45:25.609Z,2.50
2023-04-16T05:47:54.715Z,2.00
2023-04-16T05:50:24.228Z,1.98
2023-04-16T05:52:51.594Z,2.33
2023-04-16T05:55:21.346Z,2.10
2023-04-16T05:57:48.805Z,2.50
2023-04-16T06:00:16.506Z,2.20
2023-04-16T06:02:46.100Z,2.15
2023-04-16T06:05:16.514Z,2.55
2023-04-16T06:07:46.052Z,2.30
2023-04-16T06:10:15.552Z,2.53
2023-04-16T06:12:42.786Z,2.95
2023-04-16T06:15:11.030Z,2.30
2023-04-16T06:17:38.443Z,2.40
2023-04-16T06:20:06.631Z,2.60
2023-04-16T06:22:34.093Z,2.45
2023-04-16T06:25:01.341Z,2.50
2023-04-16T06:27:31.458Z,2.65
2023-04-16T06:29:58.657Z,2.70
2023-04-16T06:32:28.568Z,2.45
2023-04-16T06:34:58.802Z,2.55
2023-04-16T06:37:26.099Z,3.28
2023-04-16T06:39:53.248Z,3.90
2023-04-16T06:42:23.011Z,3.22
2023-04-16T06:44:50.354Z,3.50
2023-04-16T06:47:20.329Z,3.85
2023-04-16T06:49:47.640Z,2.60
2023-04-16T06:52:14.955Z,2.70
2023-04-16T06:54:42.174Z,3.10
2023-04-16T06:57:09.575Z,3.05
2023-04-16T06:59:36.832Z,2.90
2023-04-16T07:02:04.165Z,2.83
2023-04-16T07:04:35.833Z,3.13
2023-04-16T07:07:02.978Z,2.88
2023-04-16T07:09:30.554Z,2.72
2023-04-16T07:11:57.786Z,2.60
2023-04-16T07:14:25.328Z,2.80
2023-04-16T07:16:52.825Z,3.08
2023-04-16T07:19:20.372Z,3.00
2023-04-16T07:21:47.724Z,3.00
2023-04-16T07:24:14.940Z,2.40
2023-04-16T07:26:42.250Z,3.08
2023-04-16T07:29:09.937Z,2.92
2023-04-16T07:31:37.423Z,3.30
2023-04-16T07:34:04.820Z,2.78
2023-04-16T07:36:32.207Z,3.10
2023-04-16T07:38:59.484Z,2.92
2023-04-16T07:41:27.794Z,2.88
2023-04-16T07:43:55.456Z,2.47
2023-04-16T07:46:24.736Z,2.80
2023-04-16T07:48:52.675Z,2.80
2023-04-16T07:51:22.308Z,2.88
2023-04-16T07:53:49.457Z,2.50
2023-04-16T07:56:19.078Z,2.65
2023-04-16T07:58:46.622Z,2.45
2023-04-16T08:01:16.619Z,2.40
2023-04-16T08:03:46.800Z,2.47
2023-04-16T08:06:16.950Z,2.50
2023-04-16T08:08:47.675Z,2.28
2023-04-16T08:11:17.498Z,2.70
2023-04-16T08:13:44.895Z,2.38
2023-04-16T08:16:16.424Z,2.40
2023-04-16T08:18:44.066Z,2.50
2023-04-16T08:21:13.614Z,2.58
2023-04-16T08:23:40.951Z,2.20
2023-04-16T08:26:11.518Z,2.28
2023-04-16T08:28:43.531Z,2.60
2023-04-16T08:31:15.206Z,2.67
2023-04-16T08:33:45.303Z,2.53
2023-04-16T08:36:12.493Z,2.70
2023-04-16T08:38:39.917Z,2.60
2023-04-16T08:41:12.036Z,2.70
2023-04-16T08:43:45.425Z,2.60
2023-04-16T08:46:13.090Z,2.70
2023-04-16T08:48:42.797Z,2.60
2023-04-16T08:51:14.306Z,2.63
2023-04-16T08:54:00.001Z,2.33
2023-04-16T08:56:27.647Z,2.70
2023-04-16T08:58:58.485Z,2.47
2023-04-16T09:01:29.149Z,2.80
2023-04-16T09:03:57.304Z,2.38
2023-04-16T09:06:27.696Z,2.30
2023-04-16T09:08:58.181Z,2.42
2023-04-16T09:11:25.810Z,2.10
2023-04-16T09:13:56.011Z,2.05
2023-04-16T09:16:25.001Z,2.20
2023-04-16T09:18:52.467Z,2.30
2023-04-16T09:21:21.050Z,2.00
2023-04-16T09:23:54.594Z,2.58
2023-04-16T09:26:22.699Z,2.08
2023-04-16T09:28:51.374Z,2.40
2023-04-16T09:31:22.586Z,2.05
2023-04-16T09:34:16.841Z,2.13
2023-04-16T09:36:44.474Z,2.47
2023-04-16T09:39:19.996Z,2.90
2023-04-16T09:41:48.013Z,2.75
2023-04-16T09:44:15.586Z,2.70
2023-04-16T09:46:43.153Z,2.95
2023-04-16T09:49:16.223Z,3.08
2023-04-16T09:51:48.700Z,3.35
2023-04-16T09:54:16.851Z,3.53
2023-04-16T09:56:48.011Z,3.75
2023-04-16T09:59:22.934Z,4.30
2023-04-16T10:01:50.669Z,3.38
2023-04-16T10:04:22.261Z,3.85
2023-04-16T10:07:06.776Z,3.92
2023-04-16T10:09:38.453Z,3.90
2023-04-16T10:12:06.825Z,4.65
2023-04-16T10:14:34.801Z,4.57
2023-04-16T10:17:04.827Z,5.05
2023-04-16T10:19:35.768Z,5.10
2023-04-16T10:22:03.796Z,6.05
2023-04-16T10:24:33.930Z,6.60
2023-04-16T10:27:02.312Z,6.80
2023-04-16T10:29:33.250Z,6.25
2023-04-16T10:32:02.528Z,6.43
2023-04-16T10:34:31.330Z,6.63
2023-04-16T10:36:58.746Z,6.55
2023-04-16T10:39:28.383Z,6.07
2023-04-16T10:42:12.521Z,5.22
2023-04-16T10:44:44.289Z,5.35
2023-04-16T10:47:14.220Z,4.97
2023-04-16T10:49:43.890Z,5.93
2023-04-16T10:52:14.804Z,5.03
2023-04-16T10:54:42.061Z,5.28
2023-04-16T10:57:19.619Z,5.15
2023-04-16T10:59:51.265Z,5.47
2023-04-16T11:02:19.574Z,5.45
2023-04-16T11:04:50.129Z,4.68
2023-04-16T11:07:19.734Z,4.68
2023-04-16T11:09:52.800Z,4.88
2023-04-16T11:12:27.802Z,5.03
2023-04-16T11:14:58.750Z,4.97
2023-04-16T11:17:30.725Z,5.70
2023-04-16T11:19:58.294Z,5.25
2023-04-16T11:22:27.199Z,5.47
2023-04-16T11:24:57.784Z,5.53
2023-04-16T11:27:25.502Z,6.72
2023-04-16T11:30:05.941Z,5.75
2023-04-16T11:32:37.127Z,5.95
2023-04-16T11:35:16.198Z,4.60
2023-04-16T11:37:48.453Z,5.10
2023-04-16T11:40:19.118Z,4.93
2023-04-16T11:42:51.125Z,5.00
2023-04-16T11:45:19.483Z,4.68
2023-04-16T11:47:52.487Z,4.22
2023-04-16T11:50:24.706Z,4.07
2023-04-16T11:52:56.952Z,4.82
2023-04-16T11:55:24.896Z,5.03
2023-04-16T11:57:52.892Z,4.80
2023-04-16T12:00:35.904Z,4.57
2023-04-16T12:03:03.419Z,4.47
2023-04-16T12:05:40.229Z,4.38
2023-04-16T12:08:09.972Z,4.13
2023-04-16T12:10:55.349Z,4.07
2023-04-16T12:13:22.960Z,3.95
2023-04-16T12:19:04.695Z,4.13
2023-04-16T12:21:47.044Z,4.00
2023-04-16T12:24:17.525Z,3.65
2023-04-16T12:26:47.453Z,3.60
2023-04-16T12:29:14.871Z,3.67
2023-04-16T12:31:42.321Z,3.58
2023-04-16T12:34:11.331Z,3.97
2023-04-16T12:36:38.580Z,3.17
2023-04-16T12:39:11.047Z,3.22
2023-04-16T12:41:40.740Z,3.75
2023-04-16T12:44:20.014Z,3.30
2023-04-16T12:46:49.484Z,3.40
2023-04-16T12:49:16.964Z,3.28
2023-04-16T12:51:44.353Z,2.90
2023-04-16T12:54:11.755Z,3.40
2023-04-16T12:56:39.292Z,3.50
2023-04-16T12:59:06.515Z,3.45
2023-04-16T13:01:38.895Z,3.50
2023-04-16T13:04:07.907Z,3.33
2023-04-16T13:06:36.889Z,3.42
2023-04-16T13:09:09.521Z,3.03
2023-04-16T13:11:36.931Z,3.17
2023-04-16T13:14:08.665Z,2.78
2023-04-16T13:16:36.289Z,2.83
2023-04-16T13:19:04.017Z,2.85
2023-04-16T13:21:31.616Z,2.63
2023-04-16T13:23:59.600Z,3.28
2023-04-16T13:26:27.133Z,2.63
2023-04-16T13:28:54.616Z,2.80
2023-04-16T13:31:22.285Z,2.47
2023-04-16T13:33:50.222Z,3.05
2023-04-16T13:36:18.709Z,2.78
2023-04-16T13:38:48.680Z,2.70
2023-04-16T13:41:15.853Z,3.40
2023-04-16T13:43:45.759Z,3.08
2023-04-16T13:46:13.461Z,2.83
2023-04-16T13:48:42.535Z,2.67
2023-04-16T13:51:13.795Z,3.33
2023-04-16T13:53:41.616Z,2.90
2023-04-16T13:56:10.488Z,2.60
2023-04-16T13:58:39.245Z,2.88
2023-04-16T14:01:06.573Z,2.80
2023-04-16T14:03:39.043Z,2.72
2023-04-16T14:06:06.709Z,2.92
2023-04-16T14:08:33.926Z,2.95
2023-04-16T14:11:05.497Z,2.90
2023-04-16T14:13:35.239Z,2.80
2023-04-16T14:16:05.696Z,3.13
2023-04-16T14:18:35.832Z,3.28
2023-04-16T14:21:03.556Z,2.72
2023-04-16T14:23:31.777Z,3.22
2023-04-16T14:26:01.168Z,3.30
2023-04-16T14:28:29.984Z,3.17
2023-04-16T14:30:59.460Z,2.90
2023-04-16T14:33:27.335Z,3.30
2023-04-16T14:35:57.018Z,3.28
2023-04-16T14:38:24.474Z,3.22
2023-04-16T14:40:52.933Z,3.40
2023-04-16T14:43:20.245Z,3.17
2023-04-16T14:45:47.888Z,3.28
2023-04-16T14:48:17.361Z,3.40
2023-04-16T14:50:47.707Z,2.97
2023-04-16T14:53:14.912Z,3.17
2023-04-16T14:55:46.950Z,3.33
2023-04-16T14:58:14.444Z,3.35
2023-04-16T15:00:42.700Z,3.70
2023-04-16T15:03:11.196Z,3.33
2023-04-16T15:05:39.094Z,3.60
2023-04-16T15:08:09.049Z,3.60
2023-04-16T15:10:37.623Z,3.60
2023-04-16T15:13:07.289Z,3.10
2023-04-16T15:15:37.735Z,4.22
2023-04-16T15:18:05.346Z,3.75
2023-04-16T15:20:34.922Z,3.40
2023-04-16T15:23:07.758Z,3.53
2023-04-16T15:28:07.837Z,3.00
2023-04-16T15:30:40.353Z,3.17
2023-04-16T15:33:11.900Z,3.17
2023-04-16T15:35:43.994Z,2.63
2023-04-16T15:38:11.185Z,2.80
2023-04-16T15:40:39.279Z,2.50
2023-04-16T15:43:07.739Z,2.65
2023-04-16T15:45:37.645Z,2.50
2023-04-16T15:48:05.983Z,2.78
2023-04-16T15:51:02.664Z,2.85
2023-04-16T15:53:31.268Z,2.53
2023-04-16T15:56:00.845Z,2.85
2023-04-16T15:58:28.278Z,2.40
2023-04-16T16:00:55.470Z,2.50
2023-04-16T16:03:23.113Z,2.33
2023-04-16T16:05:51.578Z,2.45
2023-04-16T16:08:19.406Z,2.50
2023-04-16T16:10:47.133Z,2.70
2023-04-16T16:13:17.967Z,2.47
2023-04-16T16:15:45.528Z,2.30
2023-04-16T16:18:12.893Z,2.50
2023-04-16T16:20:40.570Z,2.75
2023-04-16T16:23:08.313Z,2.75
2023-04-16T16:25:35.588Z,2.75
2023-04-16T16:28:06.921Z,2.85
2023-04-16T16:30:34.229Z,2.97
2023-04-16T16:33:02.315Z,3.10
2023-04-16T16:35:30.122Z,3.28
2023-04-16T16:37:58.563Z,3.80
2023-04-16T16:40:26.310Z,3.53
2023-04-16T16:42:55.770Z,3.47
2023-04-16T16:45:29.314Z,3.33
2023-04-16T16:47:58.819Z,3.90
2023-04-16T16:50:28.425Z,4.22
2023-04-16T16:52:58.940Z,3.60
2023-04-16T16:55:26.630Z,4.22
2023-04-16T16:57:55.018Z,4.38
2023-04-16T17:00:23.036Z,4.47
2023-04-16T17:02:51.907Z,3.85
2023-04-16T17:05:21.781Z,3.90
2023-04-16T17:07:48.980Z,4.40
2023-04-16T17:10:21.373Z,3.67
2023-04-16T17:12:52.171Z,4.63
2023-04-16T17:15:23.029Z,4.22
2023-04-16T17:17:50.849Z,3.85
2023-04-16T17:20:18.696Z,3.92
2023-04-16T17:22:48.980Z,4.03
2023-04-16T17:25:16.968Z,3.80
2023-04-16T17:27:46.800Z,4.22
2023-04-16T17:30:14.551Z,4.47
2023-04-16T17:32:41.964Z,3.92
2023-04-16T17:35:13.685Z,4.18
2023-04-16T17:37:41.165Z,4.50
2023-04-16T17:40:09.860Z,4.50
2023-04-16T17:42:37.614Z,4.65
2023-04-16T17:45:07.832Z,4.82
2023-04-16T17:47:36.287Z,4.35
2023-04-16T17:50:04.302Z,4.30
2023-04-16T17:52:32.309Z,3.95
2023-04-16T17:55:11.013Z,4.25
2023-04-16T17:57:39.543Z,4.50
2023-04-16T18:00:11.561Z,4.32
2023-04-16T18:02:40.913Z,4.32
2023-04-16T18:05:09.527Z,4.20
2023-04-16T18:07:37.530Z,4.50
2023-04-16T18:10:05.682Z,3.92
2023-04-16T18:12:33.645Z,3.90
2023-04-16T18:15:00.755Z,4.50
2023-04-16T18:17:28.330Z,4.40
2023-04-16T18:19:56.535Z,4.30
2023-04-16T18:22:27.373Z,3.97
2023-04-16T18:25:00.350Z,4.25
2023-04-16T18:27:32.070Z,4.40
2023-04-16T18:29:59.705Z,3.78
2023-04-16T18:32:30.871Z,4.30
2023-04-16T18:34:58.790Z,4.25
2023-04-16T18:37:26.459Z,4.18
2023-04-16T18:39:57.890Z,4.00
2023-04-16T18:42:28.098Z,4.45
2023-04-16T18:44:59.413Z,3.67
2023-04-16T18:47:31.071Z,4.88
2023-04-16T18:49:58.524Z,4.18
2023-04-16T18:52:28.241Z,3.95
2023-04-16T18:54:57.957Z,4.18
2023-04-16T18:57:25.136Z,4.10
2023-04-16T18:59:54.323Z,4.43
2023-04-16T19:02:24.202Z,4.50
2023-04-16T19:04:51.745Z,4.07
2023-04-16T19:07:19.197Z,4.15
2023-04-16T19:09:46.499Z,4.00
2023-04-16T19:12:16.404Z,4.30
2023-04-16T19:14:44.105Z,3.95
2023-04-16T19:17:13.627Z,4.10
2023-04-16T19:19:41.207Z,4.03
2023-04-16T19:22:08.460Z,3.95
2023-04-16T19:24:35.893Z,3.75
2023-04-16T19:27:06.539Z,3.63
2023-04-16T19:29:35.030Z,3.65
2023-04-16T19:32:04.929Z,3.70
2023-04-16T19:34:32.447Z,3.72
2023-04-16T19:37:02.084Z,3.25
2023-04-16T19:39:29.445Z,3.75
2023-04-16T19:41:56.791Z,3.53
2023-04-16T19:44:27.644Z,3.85
2023-04-16T19:46:55.352Z,3.78
2023-04-16T19:49:25.202Z,3.40
2023-04-16T19:51:53.069Z,3.53
2023-04-16T19:54:23.258Z,4.22
2023-04-16T19:56:55.618Z,3.67
2023-04-16T19:59:23.000Z,3.55
2023-04-16T20:01:50.677Z,3.63
2023-04-16T20:04:18.532Z,3.75
2023-04-16T20:06:46.468Z,3.17
2023-04-16T20:09:18.481Z,3.70
2023-04-16T20:11:46.900Z,3.78
2023-04-16T20:14:14.387Z,3.58
2023-04-16T20:16:43.611Z,3.80
2023-04-16T20:19:17.170Z,3.47
2023-04-16T20:21:45.573Z,3.75
2023-04-16T20:24:12.998Z,4.03
2023-04-16T20:26:41.559Z,3.40
2023-04-16T20:29:10.188Z,3.58
2023-04-16T20:31:37.926Z,3.42
2023-04-16T20:34:05.257Z,3.45
2023-04-16T20:36:35.005Z,3.53
2023-04-16T20:39:02.316Z,4.30
2023-04-16T20:41:31.673Z,3.35
2023-04-16T20:44:05.179Z,3.50
2023-04-16T20:46:36.185Z,3.40
2023-04-16T20:49:07.567Z,3.80
2023-04-16T20:51:35.511Z,3.65
2023-04-16T20:54:04.280Z,3.53
2023-04-16T20:56:31.558Z,3.80
2023-04-16T20:58:59.379Z,3.58
2023-04-16T21:01:26.789Z,4.32
2023-04-16T21:03:57.150Z,3.38
2023-04-16T21:06:24.997Z,3.58
2023-04-16T21:08:52.323Z,3.33
2023-04-16T21:11:24.473Z,3.90
2023-04-16T21:13:51.655Z,3.85
2023-04-16T21:16:19.029Z,3.13
2023-04-16T21:18:46.294Z,3.35
2023-04-16T21:21:13.460Z,3.60
2023-04-16T21:23:42.958Z,3.45
2023-04-16T21:26:13.190Z,3.30
2023-04-16T21:28:40.537Z,3.75
2023-04-16T21:31:07.939Z,4.20
2023-04-16T21:33:35.360Z,3.40
2023-04-16T21:36:05.218Z,3.38
2023-04-16T21:38:34.500Z,3.72
2023-04-16T21:41:02.308Z,3.80
2023-04-16T21:43:35.016Z,3.60
2023-04-16T21:46:02.550Z,3.50
2023-04-16T21:48:29.809Z,3.22
2023-04-16T21:50:59.147Z,3.25
2023-04-16T21:53:31.812Z,3.35
2023-04-16T21:55:59.451Z,3.70
2023-04-16T21:58:26.751Z,3.40
2023-04-16T22:00:54.325Z,3.20
2023-04-16T22:03:26.441Z,3.10
2023-04-16T22:06:00.702Z,3.20
2023-04-16T22:08:29.242Z,3.17
2023-04-16T22:11:02.010Z,3.30
2023-04-16T22:13:32.328Z,3.35
2023-04-16T22:16:03.323Z,3.50
2023-04-16T22:18:34.109Z,3.15
2023-04-16T22:21:07.212Z,3.22
2023-04-16T22:26:02.911Z,3.40
2023-04-16T22:28:32.556Z,3.60
2023-04-16T22:31:00.134Z,3.17
2023-04-16T22:33:32.729Z,2.75
2023-04-16T22:36:02.133Z,2.97
2023-04-16T22:38:29.352Z,3.10
2023-04-16T22:40:59.230Z,3.63
2023-04-16T22:43:26.626Z,2.90
2023-04-16T22:46:04.869Z,3.13
2023-04-16T22:48:36.407Z,3.30
2023-04-16T22:51:05.507Z,2.85
2023-04-16T22:53:38.130Z,3.13
2023-04-16T22:56:08.700Z,3.10
2023-04-16T23:01:08.488Z,2.92
2023-04-16T23:03:39.067Z,2.80
2023-04-16T23:06:06.710Z,3.17
2023-04-16T23:08:34.297Z,3.20
2023-04-16T23:11:01.621Z,3.17
2023-04-16T23:13:31.562Z,3.13
2023-04-16T23:16:01.463Z,2.80
2023-04-16T23:18:29.132Z,3.22
2023-04-16T23:20:56.404Z,2.92
2023-04-16T23:23:23.798Z,3.25
2023-04-16T23:25:56.310Z,3.17
2023-04-16T23:28:25.773Z,3.10
2023-04-16T23:30:55.652Z,2.75
2023-04-16T23:33:22.922Z,3.03
2023-04-16T23:35:50.500Z,3.30
2023-04-16T23:38:17.672Z,2.83
2023-04-16T23:40:47.397Z,2.80
2023-04-16T23:43:14.675Z,2.80
2023-04-16T23:45:46.490Z,2.53
2023-04-16T23:48:18.930Z,2.42
2023-04-16T23:50:46.192Z,3.03
2023-04-16T23:53:13.459Z,3.05
2023-04-16T23:55:40.787Z,2.72
2023-04-16T23:58:10.442Z,2.88
